createdAt,value
2019-03-01T00:04:13.376Z,20.90
2019-03-01T00:09:33.313Z,70.90
2019-03-01T00:14:56.650Z,18.87
2019-03-01T00:20:22.392Z,12.23
2019-03-01T00:25:30.304Z,24.50
2019-03-01T00:31:07.303Z,23.40
2019-03-01T00:36:23.656Z,16.97
2019-03-01T00:41:43.721Z,18.53
2019-03-01T00:46:48.463Z,18.77
2019-03-01T00:51:53.095Z,17.30
2019-03-01T00:56:57.949Z,24.50
2019-03-01T01:02:02.691Z,23.30
2019-03-01T01:07:10.201Z,35.43
2019-03-01T01:12:14.948Z,24.60
2019-03-01T01:17:19.785Z,31.03
2019-03-01T01:22:24.434Z,25.23
2019-03-01T01:27:29.166Z,21.20
2019-03-01T01:32:34.010Z,18.03
2019-03-01T01:37:39.885Z,15.20
2019-03-01T01:42:44.624Z,15.27
2019-03-01T01:47:50.399Z,17.03
2019-03-01T01:52:55.444Z,21.27
2019-03-01T01:58:00.094Z,15.00
2019-03-01T02:03:04.825Z,33.27
2019-03-01T02:08:09.583Z,24.53
2019-03-01T02:13:15.360Z,22.40
2019-03-01T02:18:20.078Z,20.10
2019-03-01T02:23:26.553Z,51.93
2019-03-01T02:28:31.510Z,16.63
2019-03-01T02:33:36.250Z,14.63
2019-03-01T02:38:40.877Z,15.97
2019-03-01T02:43:45.636Z,11.73
2019-03-01T02:48:50.278Z,17.00
2019-03-01T02:53:55.021Z,18.97
2019-03-01T02:58:59.759Z,20.03
2019-03-01T03:04:04.499Z,19.53
2019-03-01T03:09:12.344Z,72.37
2019-03-01T03:14:17.160Z,42.93
2019-03-01T03:19:21.802Z,22.57
2019-03-01T03:24:28.092Z,14.03
2019-03-01T03:29:32.722Z,19.70
2019-03-01T03:34:37.367Z,16.77
2019-03-01T03:39:42.103Z,17.63
2019-03-01T03:44:46.842Z,17.30
2019-03-01T03:49:51.594Z,13.77
2019-03-01T03:54:56.230Z,119.93
2019-03-01T04:00:00.992Z,19.80
2019-03-01T04:05:07.729Z,20.30
2019-03-01T04:10:13.612Z,13.20
2019-03-01T04:15:19.403Z,24.13
2019-03-01T04:20:24.150Z,35.87
2019-03-01T04:25:28.879Z,21.30
2019-03-01T04:30:33.934Z,16.97
2019-03-01T04:35:38.677Z,21.60
2019-03-01T04:40:43.421Z,19.53
2019-03-01T04:45:49.294Z,48.67
2019-03-01T04:50:54.136Z,24.97
2019-03-01T04:55:58.875Z,39.87
2019-03-01T05:01:04.135Z,20.30
2019-03-01T05:06:09.908Z,26.83
2019-03-01T05:11:14.641Z,24.77
2019-03-01T05:16:19.394Z,26.80
2019-03-01T05:21:24.234Z,24.00
2019-03-01T05:26:29.375Z,25.77
2019-03-01T05:31:34.031Z,35.27
2019-03-01T05:36:38.762Z,48.83
2019-03-01T05:41:44.740Z,31.10
2019-03-01T05:46:49.486Z,31.70
2019-03-01T05:51:54.329Z,73.63
2019-03-01T05:56:59.065Z,59.07
2019-03-01T06:02:06.872Z,37.07
2019-03-01T06:07:17.376Z,31.33
2019-03-01T06:12:37.151Z,33.77
2019-03-01T06:18:10.775Z,23.23
2019-03-01T06:23:24.625Z,29.90
2019-03-01T06:28:38.298Z,28.50
2019-03-01T06:34:01.355Z,39.43
2019-03-01T06:39:19.511Z,32.93
2019-03-01T06:44:39.341Z,76.03
2019-03-01T06:49:57.580Z,34.80
2019-03-01T06:55:02.424Z,32.37
2019-03-01T07:00:11.997Z,47.23
2019-03-01T07:05:16.717Z,37.73
2019-03-01T07:10:21.454Z,31.33
2019-03-01T07:15:27.553Z,48.03
2019-03-01T07:20:33.597Z,23.70
2019-03-01T07:25:38.344Z,17.93
2019-03-01T07:30:43.108Z,19.77
2019-03-01T07:35:47.931Z,22.47
2019-03-01T07:40:54.217Z,26.20
2019-03-01T07:45:58.861Z,22.03
2019-03-01T07:51:04.006Z,24.10
2019-03-01T07:56:10.302Z,21.80
2019-03-01T08:01:15.651Z,21.40
2019-03-01T08:06:21.797Z,18.73
2019-03-01T08:11:31.728Z,25.70
2019-03-01T08:16:37.104Z,51.77
2019-03-01T08:21:42.794Z,24.27
2019-03-01T08:26:51.077Z,24.33
2019-03-01T08:31:56.877Z,25.30
2019-03-01T08:37:02.673Z,18.27
2019-03-01T08:42:07.427Z,13.20
2019-03-01T08:47:12.267Z,23.87
2019-03-01T08:52:18.445Z,24.47
2019-03-01T08:57:27.508Z,22.70
2019-03-01T09:02:34.691Z,25.30
2019-03-01T09:07:41.329Z,23.77
2019-03-01T09:12:46.131Z,19.27
2019-03-01T09:17:50.961Z,20.40
2019-03-01T09:22:56.736Z,17.13
2019-03-01T09:28:01.374Z,18.83
2019-03-01T09:33:06.216Z,20.93
2019-03-01T09:38:11.459Z,20.30
2019-03-01T09:43:16.120Z,17.40
2019-03-01T09:48:20.856Z,27.87
2019-03-01T09:53:26.725Z,19.57
2019-03-01T09:58:31.576Z,19.50
2019-03-01T10:03:39.550Z,21.27
2019-03-01T10:08:44.342Z,18.73
2019-03-01T10:13:49.396Z,16.43
2019-03-01T10:18:54.748Z,20.60
2019-03-01T10:23:59.664Z,15.57
2019-03-01T10:29:04.441Z,15.83
2019-03-01T10:34:11.640Z,14.73
2019-03-01T10:39:16.383Z,10.73
2019-03-01T10:44:21.562Z,10.10
2019-03-01T10:49:27.609Z,10.03
2019-03-01T10:54:33.301Z,12.03
2019-03-01T10:59:38.239Z,15.00
2019-03-01T11:04:42.967Z,11.20
2019-03-01T11:09:47.745Z,14.73
2019-03-01T11:14:52.354Z,11.97
2019-03-01T11:19:57.725Z,16.37
2019-03-01T11:25:03.178Z,16.57
2019-03-01T11:30:16.619Z,19.67
2019-03-01T11:35:21.470Z,22.73
2019-03-01T11:40:28.608Z,14.57
2019-03-01T11:45:33.272Z,16.23
2019-03-01T11:50:37.952Z,20.73
2019-03-01T11:55:42.593Z,18.90
2019-03-01T12:00:52.021Z,20.70
2019-03-01T12:05:53.929Z,17.73
2019-03-01T12:41:54.299Z,23.47
2019-03-01T12:46:59.648Z,17.13
2019-03-01T12:52:06.180Z,15.90
2019-03-01T12:57:15.147Z,24.00
2019-03-01T13:02:19.968Z,39.60
2019-03-01T13:07:25.220Z,52.27
2019-03-01T13:12:31.714Z,14.40
2019-03-01T13:17:38.685Z,13.73
2019-03-01T13:22:43.569Z,12.97
2019-03-01T13:27:48.864Z,12.10
2019-03-01T13:32:55.130Z,14.17
2019-03-01T13:38:00.137Z,14.70
2019-03-01T13:43:04.881Z,10.73
2019-03-01T13:48:09.526Z,12.57
2019-03-01T13:53:14.291Z,20.93
2019-03-01T13:58:20.431Z,14.83
2019-03-01T14:03:27.423Z,34.47
2019-03-01T14:08:31.681Z,13.60
2019-03-01T14:13:36.310Z,20.50
2019-03-01T14:18:42.223Z,12.13
2019-03-01T14:23:48.467Z,10.57
2019-03-01T14:28:55.767Z,14.83
2019-03-01T14:34:04.360Z,16.53
2019-03-01T14:39:12.555Z,21.37
2019-03-01T14:44:17.446Z,25.20
2019-03-01T14:49:23.725Z,42.83
2019-03-01T14:54:29.598Z,38.60
2019-03-01T14:59:38.454Z,28.37
2019-03-01T15:04:43.536Z,27.87
2019-03-01T15:09:48.258Z,19.40
2019-03-01T15:14:53.212Z,41.43
2019-03-01T15:19:57.946Z,40.90
2019-03-01T15:25:02.818Z,31.60
2019-03-01T15:30:13.839Z,26.27
2019-03-01T15:35:19.771Z,40.60
2019-03-01T15:40:27.950Z,31.70
2019-03-01T15:45:30.885Z,24.50
2019-03-01T15:50:35.627Z,22.73
2019-03-01T15:55:40.286Z,107.77
2019-03-01T16:00:49.987Z,74.53
2019-03-01T16:05:55.914Z,134.13
2019-03-01T16:11:01.152Z,43.73
2019-03-01T16:16:05.756Z,88.83
2019-03-01T16:21:10.436Z,74.17
2019-03-01T16:26:15.297Z,71.50
2019-03-01T16:31:20.031Z,32.83
2019-03-01T16:36:27.453Z,23.83
2019-03-01T16:41:35.259Z,28.10
2019-03-01T16:46:40.718Z,44.07
2019-03-01T16:51:47.075Z,46.67
2019-03-01T16:56:51.982Z,81.57
2019-03-01T17:01:56.887Z,65.67
2019-03-01T17:07:01.903Z,87.70
2019-03-01T17:12:08.232Z,57.57
2019-03-01T17:17:13.159Z,49.67
2019-03-01T17:22:18.036Z,89.47
2019-03-01T17:27:22.640Z,82.30
2019-03-01T17:32:29.385Z,99.00
2019-03-01T17:37:34.311Z,73.83
2019-03-01T17:42:40.864Z,65.57
2019-03-01T17:47:46.304Z,50.20
2019-03-01T17:52:51.183Z,35.20
2019-03-01T17:57:56.662Z,36.67
2019-03-01T18:03:01.316Z,42.07
2019-03-01T18:08:06.484Z,36.60
2019-03-01T18:13:11.746Z,27.13
2019-03-01T18:18:16.535Z,31.77
2019-03-01T18:23:22.523Z,70.00
2019-03-01T18:28:28.305Z,102.17
2019-03-01T18:33:33.841Z,57.77
2019-03-01T18:38:38.950Z,55.07
2019-03-01T18:43:45.753Z,53.83
2019-03-01T18:48:51.287Z,57.50
2019-03-01T18:53:56.080Z,56.43
2019-03-01T18:59:00.931Z,56.00
2019-03-01T19:04:08.433Z,45.03
2019-03-01T19:09:16.477Z,42.83
2019-03-01T19:14:21.110Z,42.57
2019-03-01T19:19:29.784Z,46.80
2019-03-01T19:24:32.638Z,53.60
2019-03-01T19:29:38.140Z,50.00
2019-03-01T19:34:43.860Z,41.67
2019-03-01T19:39:50.835Z,46.50
2019-03-01T19:44:57.239Z,47.63
2019-03-01T19:50:02.082Z,39.20
2019-03-01T19:55:11.750Z,48.00
2019-03-01T20:00:32.238Z,43.00
2019-03-01T20:05:41.835Z,51.83
2019-03-01T20:10:47.652Z,41.80
2019-03-01T20:15:53.293Z,74.80
2019-03-01T20:20:58.084Z,84.87
2019-03-01T20:26:02.834Z,98.80
2019-03-01T20:31:08.845Z,104.37
2019-03-01T20:36:17.655Z,95.70
2019-03-01T20:41:21.666Z,124.20
2019-03-01T20:46:26.430Z,139.37
2019-03-01T20:51:31.358Z,141.13
2019-03-01T20:56:36.558Z,149.70
2019-03-01T21:56:28.331Z,79.30
2019-03-01T22:01:33.673Z,106.17
2019-03-01T23:01:39.891Z,100.83
2019-03-01T23:06:47.592Z,102.87
2019-03-01T23:11:51.015Z,82.53
2019-03-01T23:16:55.756Z,102.47
2019-03-01T23:22:00.559Z,110.63
2019-03-01T23:27:05.348Z,97.03
2019-03-01T23:32:11.765Z,109.37
2019-03-01T23:37:16.672Z,110.00
2019-03-01T23:42:22.071Z,115.07
2019-03-01T23:47:26.906Z,114.10
2019-03-01T23:52:33.361Z,185.00
2019-03-01T23:57:41.006Z,161.77
